createdAt,value
2017-11-30T00:00:56.861Z,14.15
2017-11-30T00:03:25.180Z,11.82
2017-11-30T00:05:53.497Z,10.60
2017-11-30T00:08:21.780Z,13.18
2017-11-30T00:10:50.106Z,15.70
2017-11-30T00:13:18.400Z,14.35
2017-11-30T00:15:46.733Z,17.30
2017-11-30T00:18:15.024Z,15.90
2017-11-30T00:20:43.357Z,13.40
2017-11-30T00:23:11.676Z,12.30
2017-11-30T00:25:40.754Z,17.62
2017-11-30T00:28:09.160Z,16.25
2017-11-30T00:30:37.488Z,13.27
2017-11-30T00:33:05.825Z,15.13
2017-11-30T00:35:34.141Z,17.83
2017-11-30T00:38:02.464Z,17.00
2017-11-30T00:40:30.753Z,11.50
2017-11-30T00:43:11.094Z,15.80
2017-11-30T00:45:40.156Z,16.70
2017-11-30T00:48:08.502Z,16.52
2017-11-30T00:50:37.552Z,16.45
2017-11-30T00:53:05.877Z,19.45
2017-11-30T00:55:34.173Z,17.93
2017-11-30T00:58:03.304Z,14.32
2017-11-30T01:00:31.600Z,18.95
2017-11-30T01:02:59.903Z,15.20
2017-11-30T01:05:29.228Z,19.55
2017-11-30T01:07:57.565Z,19.35
2017-11-30T01:10:27.892Z,22.13
2017-11-30T01:12:56.179Z,12.18
2017-11-30T01:15:24.520Z,14.40
2017-11-30T01:17:52.813Z,16.95
2017-11-30T01:20:21.103Z,21.00
2017-11-30T01:22:49.440Z,21.77
2017-11-30T01:25:17.828Z,19.52
2017-11-30T01:27:46.157Z,21.87
2017-11-30T01:30:14.465Z,20.10
2017-11-30T01:32:42.782Z,17.17
2017-11-30T01:35:11.085Z,19.52
2017-11-30T01:37:39.413Z,19.15
2017-11-30T01:40:07.704Z,18.30
2017-11-30T01:42:36.036Z,17.23
2017-11-30T01:45:04.328Z,19.02
2017-11-30T01:47:34.152Z,18.08
2017-11-30T01:50:02.453Z,20.00
2017-11-30T01:52:30.773Z,14.55
2017-11-30T01:54:59.851Z,26.85
2017-11-30T01:57:28.251Z,15.77
2017-11-30T01:59:56.545Z,15.37
2017-11-30T02:02:25.620Z,15.17
2017-11-30T02:04:53.917Z,15.55
2017-11-30T02:07:22.256Z,16.95
2017-11-30T02:09:50.556Z,18.65
2017-11-30T02:12:18.871Z,15.70
2017-11-30T02:14:47.171Z,15.50
2017-11-30T02:17:15.499Z,25.62
2017-11-30T02:19:44.556Z,22.05
2017-11-30T02:22:12.896Z,18.83
2017-11-30T02:24:41.956Z,17.90
2017-11-30T02:27:10.252Z,16.77
2017-11-30T02:29:38.612Z,14.10
2017-11-30T02:32:06.912Z,14.57
2017-11-30T02:34:35.204Z,17.10
2017-11-30T02:37:03.540Z,18.52
2017-11-30T02:39:31.883Z,18.23
2017-11-30T02:42:00.180Z,17.75
2017-11-30T02:44:29.437Z,16.33
2017-11-30T02:46:58.516Z,12.70
2017-11-30T02:49:26.809Z,15.20
2017-11-30T02:51:55.124Z,14.57
2017-11-30T02:54:24.184Z,17.37
2017-11-30T02:56:53.732Z,18.73
2017-11-30T02:59:22.029Z,15.33
2017-11-30T03:01:50.339Z,17.67
2017-11-30T03:04:18.642Z,15.30
2017-11-30T03:06:46.968Z,16.90
2017-11-30T03:09:15.267Z,19.07
2017-11-30T03:11:43.605Z,16.50
2017-11-30T03:14:11.946Z,16.27
2017-11-30T03:16:40.250Z,15.23
2017-11-30T03:19:08.532Z,20.93
2017-11-30T03:21:38.344Z,19.37
2017-11-30T03:24:06.639Z,20.15
2017-11-30T03:26:34.984Z,18.35
2017-11-30T03:29:03.310Z,16.30
2017-11-30T03:31:31.629Z,22.17
2017-11-30T03:33:59.945Z,15.67
2017-11-30T03:36:29.001Z,19.13
2017-11-30T03:38:57.359Z,19.17
2017-11-30T03:41:26.100Z,16.07
2017-11-30T03:43:54.462Z,13.13
2017-11-30T03:46:22.772Z,19.60
2017-11-30T03:48:51.055Z,22.60
2017-11-30T03:51:19.475Z,21.35
2017-11-30T03:53:47.769Z,20.53
2017-11-30T03:56:16.072Z,16.10
2017-11-30T03:58:45.144Z,16.97
2017-11-30T04:01:21.073Z,15.55
2017-11-30T04:03:49.360Z,15.20
2017-11-30T04:06:17.680Z,20.08
2017-11-30T04:08:46.082Z,15.35
2017-11-30T04:11:14.424Z,20.03
2017-11-30T04:13:42.781Z,19.43
2017-11-30T04:16:11.092Z,17.57
2017-11-30T04:18:39.392Z,18.40
2017-11-30T04:21:07.741Z,16.83
2017-11-30T04:23:36.036Z,13.57
2017-11-30T04:26:04.375Z,19.90
2017-11-30T04:28:32.769Z,19.48
2017-11-30T04:31:01.117Z,17.98
2017-11-30T04:33:30.171Z,17.87
2017-11-30T04:35:58.521Z,15.80
2017-11-30T04:38:27.578Z,18.43
2017-11-30T04:40:55.868Z,18.57
2017-11-30T04:43:24.214Z,18.17
2017-11-30T04:45:53.268Z,19.37
2017-11-30T04:48:21.564Z,16.43
2017-11-30T04:50:49.905Z,18.63
2017-11-30T04:53:19.009Z,15.53
2017-11-30T04:55:48.104Z,15.77
2017-11-30T04:58:17.193Z,15.20
2017-11-30T05:00:45.481Z,20.10
2017-11-30T05:03:13.795Z,21.15
2017-11-30T05:05:42.898Z,19.33
2017-11-30T05:08:11.951Z,21.73
2017-11-30T05:10:40.252Z,19.97
2017-11-30T05:13:08.606Z,19.50
2017-11-30T05:15:36.895Z,21.87
2017-11-30T05:18:05.187Z,17.50
2017-11-30T05:20:33.641Z,18.33
2017-11-30T05:23:01.928Z,19.63
2017-11-30T05:25:30.216Z,21.13
2017-11-30T05:27:58.552Z,18.83
2017-11-30T05:30:26.851Z,17.00
2017-11-30T05:32:55.179Z,17.17
2017-11-30T05:35:23.468Z,18.73
2017-11-30T05:37:51.768Z,17.65
2017-11-30T05:40:20.166Z,18.70
2017-11-30T05:42:48.451Z,15.83
2017-11-30T05:45:16.768Z,16.87
2017-11-30T05:47:45.066Z,17.95
2017-11-30T05:50:13.392Z,20.25
2017-11-30T05:52:41.681Z,17.30
2017-11-30T05:55:10.014Z,22.60
2017-11-30T05:57:39.068Z,18.77
2017-11-30T06:00:07.399Z,17.50
2017-11-30T06:02:35.684Z,17.50
2017-11-30T06:05:04.008Z,18.40
2017-11-30T06:07:32.305Z,20.37
2017-11-30T06:10:00.633Z,25.27
2017-11-30T06:12:28.945Z,18.40
2017-11-30T06:14:58.042Z,24.47
2017-11-30T06:17:26.329Z,19.53
2017-11-30T06:19:56.168Z,22.83
2017-11-30T06:22:24.553Z,18.63
2017-11-30T06:24:52.888Z,20.10
2017-11-30T06:27:21.194Z,16.35
2017-11-30T06:29:49.557Z,19.57
2017-11-30T06:32:17.855Z,19.05
2017-11-30T06:34:46.149Z,21.17
2017-11-30T06:37:14.497Z,22.30
2017-11-30T06:39:42.830Z,20.00
2017-11-30T06:42:11.139Z,16.13
2017-11-30T06:44:39.649Z,15.40
2017-11-30T06:47:07.956Z,21.87
2017-11-30T06:49:36.306Z,19.20
2017-11-30T06:52:04.588Z,17.73
2017-11-30T06:54:32.945Z,18.20
2017-11-30T06:57:02.001Z,16.40
2017-11-30T06:59:30.344Z,18.07
2017-11-30T07:01:59.404Z,19.75
2017-11-30T07:04:27.749Z,18.40
2017-11-30T07:06:56.113Z,22.60
2017-11-30T07:09:24.419Z,19.73
2017-11-30T07:11:53.484Z,17.70
2017-11-30T07:14:21.793Z,19.60
2017-11-30T07:16:50.083Z,19.53
2017-11-30T07:19:18.428Z,19.87
2017-11-30T07:21:46.711Z,24.97
2017-11-30T07:24:15.058Z,18.67
2017-11-30T07:26:43.348Z,17.13
2017-11-30T07:29:11.704Z,23.87
2017-11-30T07:31:39.996Z,17.87
2017-11-30T07:34:08.284Z,19.90
2017-11-30T07:36:36.636Z,19.17
2017-11-30T07:39:04.929Z,21.10
2017-11-30T07:41:33.228Z,22.83
2017-11-30T07:44:01.585Z,17.10
2017-11-30T07:46:30.716Z,18.73
2017-11-30T07:48:59.004Z,22.33
2017-11-30T07:51:27.340Z,19.70
2017-11-30T07:53:55.631Z,18.60
2017-11-30T07:56:24.004Z,17.42
2017-11-30T07:58:52.301Z,19.70
2017-11-30T08:01:20.597Z,18.25
2017-11-30T08:03:48.911Z,18.73
2017-11-30T08:06:17.201Z,18.60
2017-11-30T08:08:45.520Z,19.23
2017-11-30T08:11:13.807Z,20.53
2017-11-30T08:13:44.109Z,18.97
2017-11-30T08:16:12.392Z,21.17
2017-11-30T08:18:40.708Z,20.60
2017-11-30T08:21:09.764Z,24.10
2017-11-30T08:23:38.181Z,25.30
2017-11-30T08:26:06.516Z,19.50
2017-11-30T08:28:34.803Z,21.33
2017-11-30T08:31:03.104Z,26.90
2017-11-30T08:33:31.440Z,23.50
2017-11-30T08:35:59.771Z,25.13
2017-11-30T08:38:28.059Z,29.97
2017-11-30T08:40:56.353Z,25.70
2017-11-30T08:43:24.737Z,25.13
2017-11-30T08:45:53.057Z,30.10
2017-11-30T08:48:21.764Z,29.13
2017-11-30T08:50:50.056Z,27.10
2017-11-30T08:53:18.350Z,25.90
2017-11-30T08:55:46.673Z,20.00
2017-11-30T08:58:14.989Z,19.80
2017-11-30T09:00:43.277Z,17.97
2017-11-30T09:03:11.624Z,21.87
2017-11-30T09:05:39.912Z,23.60
2017-11-30T09:08:08.215Z,20.07
2017-11-30T09:10:36.562Z,22.33
2017-11-30T09:13:04.860Z,25.17
2017-11-30T09:15:33.194Z,31.10
2017-11-30T09:18:01.497Z,44.47
2017-11-30T09:20:29.836Z,28.97
2017-11-30T09:22:58.177Z,22.60
2017-11-30T09:25:27.313Z,21.80
2017-11-30T09:27:55.596Z,23.30
2017-11-30T09:30:23.888Z,23.07
2017-11-30T09:32:52.325Z,21.10
2017-11-30T09:35:20.661Z,25.60
2017-11-30T09:37:48.956Z,23.60
2017-11-30T09:40:17.289Z,24.77
2017-11-30T09:42:45.626Z,23.07
2017-11-30T09:45:13.939Z,22.93
2017-11-30T09:47:42.293Z,22.83
2017-11-30T09:50:11.373Z,25.83
2017-11-30T09:52:39.688Z,27.20
2017-11-30T09:55:08.741Z,24.57
2017-11-30T09:57:37.077Z,28.23
2017-11-30T10:00:06.369Z,29.30
2017-11-30T10:02:36.172Z,32.90
2017-11-30T10:05:04.451Z,39.50
2017-11-30T10:07:32.788Z,37.17
2017-11-30T10:10:01.894Z,31.27
2017-11-30T10:12:30.953Z,25.13
2017-11-30T10:14:59.231Z,30.43
2017-11-30T10:17:27.567Z,22.63
2017-11-30T10:19:55.856Z,28.07
2017-11-30T10:22:24.242Z,33.97
2017-11-30T10:24:52.526Z,33.47
2017-11-30T10:27:20.843Z,33.10
2017-11-30T10:29:49.429Z,29.77
2017-11-30T10:32:17.716Z,34.63
2017-11-30T10:34:46.772Z,30.87
2017-11-30T10:37:15.103Z,27.10
2017-11-30T10:39:43.404Z,26.40
2017-11-30T10:42:11.694Z,25.40
2017-11-30T10:44:41.539Z,27.10
2017-11-30T10:47:09.824Z,29.47
2017-11-30T10:49:38.947Z,27.07
2017-11-30T10:52:07.232Z,26.10
2017-11-30T10:54:35.522Z,28.30
2017-11-30T10:57:03.866Z,25.07
2017-11-30T10:59:32.152Z,27.40
2017-11-30T11:02:00.487Z,25.40
2017-11-30T11:04:28.785Z,25.07
2017-11-30T11:06:57.109Z,20.80
2017-11-30T11:09:25.452Z,25.17
2017-11-30T11:11:54.503Z,25.07
2017-11-30T11:14:22.816Z,22.17
2017-11-30T11:16:51.218Z,27.60
2017-11-30T11:19:19.509Z,24.50
2017-11-30T11:21:47.823Z,23.47
2017-11-30T11:24:16.886Z,24.67
2017-11-30T11:26:46.620Z,31.47
2017-11-30T11:29:14.912Z,28.23
2017-11-30T11:31:43.201Z,25.10
2017-11-30T11:34:11.557Z,28.43
2017-11-30T11:36:39.881Z,29.23
2017-11-30T11:39:08.181Z,25.17
2017-11-30T11:41:37.476Z,27.10
2017-11-30T11:44:06.097Z,23.70
2017-11-30T11:46:35.157Z,23.73
2017-11-30T11:49:03.464Z,28.53
2017-11-30T11:51:31.752Z,25.23
2017-11-30T11:54:00.059Z,22.63
2017-11-30T11:56:28.348Z,21.63
2017-11-30T11:58:56.660Z,27.67
2017-11-30T12:01:25.709Z,26.07
2017-11-30T12:03:54.016Z,24.70
2017-11-30T12:06:22.304Z,24.87
2017-11-30T12:08:50.709Z,27.80
2017-11-30T12:11:18.999Z,23.50
2017-11-30T12:13:47.333Z,27.30
2017-11-30T12:16:15.616Z,24.90
2017-11-30T12:18:43.908Z,27.57
2017-11-30T12:21:12.244Z,26.17
2017-11-30T12:23:40.534Z,28.30
2017-11-30T12:26:08.876Z,34.43
2017-11-30T12:28:37.201Z,26.20
2017-11-30T12:31:05.532Z,33.07
2017-11-30T12:33:34.585Z,28.20
2017-11-30T12:36:02.867Z,28.63
2017-11-30T12:38:31.196Z,28.37
2017-11-30T12:40:59.483Z,28.63
2017-11-30T12:43:27.797Z,28.83
2017-11-30T12:45:56.847Z,30.13
2017-11-30T12:48:25.192Z,31.40
2017-11-30T12:50:54.277Z,30.10
2017-11-30T12:53:22.589Z,31.37
2017-11-30T12:55:51.697Z,40.93
2017-11-30T12:58:20.807Z,27.07
2017-11-30T13:00:49.912Z,33.97
2017-11-30T13:03:18.218Z,31.03
2017-11-30T13:05:47.279Z,32.70
2017-11-30T13:08:15.611Z,35.10
2017-11-30T13:10:44.668Z,31.20
2017-11-30T13:13:12.954Z,35.87
2017-11-30T13:15:41.294Z,31.27
2017-11-30T13:18:10.346Z,30.77
2017-11-30T13:20:38.686Z,30.97
2017-11-30T13:23:07.747Z,30.17
2017-11-30T13:25:36.074Z,32.43
2017-11-30T13:28:05.186Z,38.50
2017-11-30T13:30:34.247Z,32.30
2017-11-30T13:33:02.543Z,34.90
2017-11-30T13:35:30.878Z,41.37
2017-11-30T13:37:59.935Z,40.17
2017-11-30T13:40:28.250Z,34.53
2017-11-30T13:42:56.566Z,35.57
2017-11-30T13:45:25.624Z,32.40
2017-11-30T13:47:53.959Z,35.47
2017-11-30T13:50:23.020Z,25.57
2017-11-30T13:52:51.311Z,28.80
2017-11-30T13:55:19.644Z,36.23
2017-11-30T13:57:48.715Z,31.20
2017-11-30T14:00:17.051Z,32.87
2017-11-30T14:02:46.174Z,29.93
2017-11-30T14:05:14.466Z,36.97
2017-11-30T14:07:42.750Z,34.60
2017-11-30T14:10:11.091Z,26.17
2017-11-30T14:12:39.439Z,36.40
2017-11-30T14:15:07.730Z,32.70
2017-11-30T14:17:36.022Z,30.67
2017-11-30T14:20:04.359Z,34.50
2017-11-30T14:22:32.650Z,33.50
2017-11-30T14:25:00.982Z,31.17
2017-11-30T14:27:29.271Z,39.43
2017-11-30T14:29:57.559Z,29.97
2017-11-30T14:32:25.875Z,35.40
2017-11-30T14:34:54.167Z,30.30
2017-11-30T14:37:22.483Z,32.00
2017-11-30T14:39:50.775Z,35.60
2017-11-30T14:42:21.035Z,30.07
2017-11-30T14:44:50.172Z,35.50
2017-11-30T14:47:18.639Z,30.57
2017-11-30T14:49:47.794Z,43.00
2017-11-30T14:52:16.102Z,36.00
2017-11-30T14:54:44.394Z,39.07
2017-11-30T14:57:12.715Z,35.50
2017-11-30T14:59:41.780Z,31.23
2017-11-30T15:02:11.759Z,29.47
2017-11-30T15:04:40.314Z,31.90
2017-11-30T15:07:08.598Z,35.23
2017-11-30T15:09:37.832Z,30.57
2017-11-30T15:12:06.916Z,33.40
2017-11-30T15:14:35.315Z,36.17
2017-11-30T15:17:03.627Z,37.87
2017-11-30T15:19:32.699Z,31.87
2017-11-30T15:22:01.016Z,30.83
2017-11-30T15:24:30.092Z,31.33
2017-11-30T15:26:58.435Z,37.30
2017-11-30T15:29:27.487Z,36.97
2017-11-30T15:31:55.831Z,37.45
2017-11-30T15:34:24.168Z,42.40
2017-11-30T15:36:52.455Z,36.73
2017-11-30T15:39:20.972Z,41.30
2017-11-30T15:41:49.267Z,39.00
2017-11-30T15:44:17.567Z,41.63
2017-11-30T15:46:46.666Z,37.90
2017-11-30T15:49:15.110Z,44.10
2017-11-30T15:51:43.398Z,41.70
2017-11-30T15:54:13.643Z,47.00
2017-11-30T15:56:41.966Z,39.57
2017-11-30T15:59:10.259Z,43.93
2017-11-30T16:01:38.602Z,36.13
2017-11-30T16:04:06.904Z,43.00
2017-11-30T16:06:35.316Z,40.83
2017-11-30T16:09:03.661Z,37.97
2017-11-30T16:11:31.979Z,35.67
2017-11-30T16:14:00.310Z,43.87
2017-11-30T16:16:29.361Z,45.13
2017-11-30T16:18:57.690Z,46.93
2017-11-30T16:21:25.983Z,43.27
2017-11-30T16:23:55.836Z,40.30
2017-11-30T16:26:24.889Z,41.27
2017-11-30T16:28:53.204Z,42.77
2017-11-30T16:31:21.553Z,38.70
2017-11-30T16:33:49.822Z,40.83
2017-11-30T16:36:18.153Z,44.63
2017-11-30T16:38:46.512Z,45.23
2017-11-30T16:41:14.801Z,41.77
2017-11-30T16:43:43.082Z,44.50
2017-11-30T16:46:11.406Z,51.03
2017-11-30T16:48:39.706Z,49.27
2017-11-30T16:51:08.088Z,44.70
2017-11-30T16:53:37.922Z,43.37
2017-11-30T16:56:12.074Z,44.90
2017-11-30T16:58:41.174Z,42.00
2017-11-30T17:01:09.466Z,41.73
2017-11-30T17:03:37.806Z,37.63
2017-11-30T17:06:06.095Z,46.33
2017-11-30T17:08:34.383Z,43.30
2017-11-30T17:11:03.118Z,45.03
2017-11-30T17:13:31.414Z,47.50
2017-11-30T17:15:59.706Z,45.87
2017-11-30T17:18:28.095Z,49.73
2017-11-30T17:20:56.386Z,44.13
2017-11-30T17:23:24.670Z,41.73
2017-11-30T17:25:53.022Z,44.33
2017-11-30T17:28:21.323Z,48.27
2017-11-30T17:30:49.674Z,41.53
2017-11-30T17:33:18.739Z,47.00
2017-11-30T17:35:47.029Z,36.03
2017-11-30T17:38:17.251Z,46.03
2017-11-30T17:40:45.664Z,49.23
2017-11-30T17:43:13.955Z,46.13
2017-11-30T17:45:42.282Z,44.40
2017-11-30T17:48:10.826Z,44.07
2017-11-30T17:50:40.215Z,36.77
2017-11-30T17:53:08.512Z,40.87
2017-11-30T17:55:37.614Z,36.23
2017-11-30T17:58:05.924Z,33.20
2017-11-30T18:00:34.250Z,42.57
2017-11-30T18:03:03.306Z,33.83
2017-11-30T18:05:31.647Z,36.33
2017-11-30T18:08:00.754Z,39.47
2017-11-30T18:10:29.843Z,38.33
2017-11-30T18:12:58.201Z,35.33
2017-11-30T18:15:26.491Z,37.30
2017-11-30T18:17:54.792Z,36.93
2017-11-30T18:20:23.307Z,30.83
2017-11-30T18:22:52.537Z,37.40
2017-11-30T18:25:21.591Z,35.90
2017-11-30T18:27:49.922Z,38.60
2017-11-30T18:30:18.215Z,34.47
2017-11-30T18:32:47.430Z,32.00
2017-11-30T18:35:17.859Z,36.83
2017-11-30T18:37:46.163Z,29.40
2017-11-30T18:40:15.214Z,35.53
2017-11-30T18:42:43.534Z,39.07
2017-11-30T18:45:11.870Z,39.63
2017-11-30T18:47:41.559Z,40.63
2017-11-30T18:50:09.842Z,37.33
2017-11-30T18:52:38.140Z,33.47
2017-11-30T18:55:06.475Z,33.73
2017-11-30T18:57:34.851Z,37.47
2017-11-30T19:00:03.197Z,32.77
2017-11-30T19:02:31.497Z,45.10
2017-11-30T19:05:01.415Z,31.83
2017-11-30T19:07:29.856Z,28.43
2017-11-30T19:09:58.906Z,28.97
2017-11-30T19:12:27.294Z,31.47
2017-11-30T19:14:55.600Z,29.60
2017-11-30T19:17:23.900Z,33.60
2017-11-30T19:19:52.257Z,29.23
2017-11-30T19:22:20.625Z,28.70
2017-11-30T19:24:48.919Z,27.20
2017-11-30T19:27:17.263Z,31.73
2017-11-30T19:29:45.564Z,28.00
2017-11-30T19:32:13.943Z,31.80
2017-11-30T19:34:43.672Z,31.30
2017-11-30T19:37:12.742Z,26.43
2017-11-30T19:39:41.066Z,35.83
2017-11-30T19:42:10.138Z,27.73
2017-11-30T19:44:38.480Z,36.60
2017-11-30T19:47:06.837Z,31.90
2017-11-30T19:49:35.189Z,32.17
2017-11-30T19:52:03.537Z,32.67
2017-11-30T19:54:32.746Z,30.03
2017-11-30T19:57:01.108Z,39.53
2017-11-30T19:59:29.436Z,31.97
2017-11-30T20:01:58.499Z,34.10
2017-11-30T20:04:26.864Z,33.33
2017-11-30T20:06:55.223Z,31.47
2017-11-30T20:09:24.326Z,28.20
2017-11-30T20:11:52.634Z,31.07
2017-11-30T20:14:20.991Z,25.77
2017-11-30T20:16:49.284Z,34.43
2017-11-30T20:19:17.623Z,29.50
2017-11-30T20:21:45.976Z,31.83
2017-11-30T20:24:14.320Z,33.23
2017-11-30T20:26:42.759Z,29.83
2017-11-30T20:29:11.145Z,25.00
2017-11-30T20:31:39.530Z,28.87
2017-11-30T20:34:07.851Z,25.97
2017-11-30T20:36:36.908Z,24.27
2017-11-30T20:39:05.226Z,23.87
2017-11-30T20:41:34.539Z,33.00
2017-11-30T20:44:02.950Z,26.87
2017-11-30T20:46:32.010Z,27.20
2017-11-30T20:49:00.352Z,30.07
2017-11-30T20:51:28.647Z,26.87
2017-11-30T20:53:57.016Z,23.33
2017-11-30T20:56:26.115Z,26.90
2017-11-30T20:58:54.512Z,20.83
2017-11-30T21:01:23.572Z,24.53
2017-11-30T21:03:52.668Z,31.50
2017-11-30T21:06:20.955Z,31.40
2017-11-30T21:08:49.290Z,39.90
2017-11-30T21:11:17.604Z,29.97
2017-11-30T21:13:46.694Z,25.63
2017-11-30T21:16:15.032Z,34.17
2017-11-30T21:18:43.403Z,34.80
2017-11-30T21:21:12.531Z,30.77
2017-11-30T21:23:44.180Z,27.00
2017-11-30T21:26:12.543Z,40.47
2017-11-30T21:28:41.026Z,31.60
2017-11-30T21:31:10.102Z,34.30
2017-11-30T21:33:38.399Z,29.23
2017-11-30T21:36:06.728Z,26.43
2017-11-30T21:38:35.822Z,32.70
2017-11-30T21:41:04.156Z,31.85
2017-11-30T21:43:32.522Z,39.05
2017-11-30T21:46:01.616Z,29.57
2017-11-30T21:48:29.978Z,29.77
2017-11-30T21:50:58.276Z,40.55
2017-11-30T21:53:26.574Z,33.17
2017-11-30T21:55:54.979Z,33.57
2017-11-30T21:58:23.331Z,30.27
2017-11-30T22:00:51.675Z,38.88
2017-11-30T22:03:20.771Z,30.83
2017-11-30T22:05:49.878Z,28.87
2017-11-30T22:08:18.983Z,34.47
2017-11-30T22:10:47.470Z,31.58
2017-11-30T22:13:17.270Z,37.47
2017-11-30T22:15:45.562Z,31.23
2017-11-30T22:18:13.902Z,35.67
2017-11-30T22:20:43.075Z,35.83
2017-11-30T22:23:11.363Z,37.40
2017-11-30T22:25:39.703Z,30.97
2017-11-30T22:28:07.994Z,33.17
2017-11-30T22:30:36.343Z,33.92
2017-11-30T22:33:04.639Z,29.60
2017-11-30T22:35:34.434Z,37.40
2017-11-30T22:38:02.778Z,36.47
2017-11-30T22:40:31.115Z,37.53
2017-11-30T22:43:01.276Z,41.05
2017-11-30T22:45:29.764Z,34.50
2017-11-30T22:47:58.833Z,45.78
2017-11-30T22:50:27.130Z,39.73
2017-11-30T22:52:55.505Z,36.60
2017-11-30T22:55:23.802Z,32.77
2017-11-30T22:57:52.107Z,33.97
2017-11-30T23:00:20.626Z,32.35
2017-11-30T23:02:48.931Z,35.72
2017-11-30T23:05:18.012Z,27.00
2017-11-30T23:07:46.414Z,34.67
2017-11-30T23:10:14.715Z,31.20
2017-11-30T23:12:43.773Z,31.10
2017-11-30T23:15:12.114Z,35.13
2017-11-30T23:17:41.207Z,28.77
2017-11-30T23:20:09.595Z,30.20
2017-11-30T23:22:37.890Z,29.70
2017-11-30T23:25:06.384Z,33.63
2017-11-30T23:27:34.678Z,31.73
2017-11-30T23:30:02.962Z,35.17
2017-11-30T23:32:31.302Z,28.55
2017-11-30T23:35:00.043Z,26.25
2017-11-30T23:37:28.342Z,24.45
2017-11-30T23:39:57.408Z,30.43
2017-11-30T23:42:25.735Z,35.30
2017-11-30T23:44:54.071Z,29.37
2017-11-30T23:47:22.414Z,33.95
2017-11-30T23:49:50.766Z,29.40
2017-11-30T23:52:19.062Z,30.15
2017-11-30T23:54:48.094Z,30.00
2017-11-30T23:57:16.455Z,34.90
2017-11-30T23:59:44.782Z,27.33
